sensor_id;sensor_type;location;lat;lon;timestamp;pressure;altitude;pressure_sealevel;temperature
13410;BMP180;6775;49.574;11.170;2024-02-21T00:01:15;98434.31;;;7.77
13410;BMP180;6775;49.574;11.170;2024-02-21T00:03:44;98425.06;;;7.75
13410;BMP180;6775;49.574;11.170;2024-02-21T00:06:12;98425.06;;;7.75
13410;BMP180;6775;49.574;11.170;2024-02-21T00:08:40;98420.03;;;7.73
13410;BMP180;6775;49.574;11.170;2024-02-21T00:11:10;98418.28;;;7.74
13410;BMP180;6775;49.574;11.170;2024-02-21T00:13:38;98414.09;;;7.73
13410;BMP180;6775;49.574;11.170;2024-02-21T00:16:07;98419.13;;;7.74
13410;BMP180;6775;49.574;11.170;2024-02-21T00:18:35;98410.59;;;7.74
13410;BMP180;6775;49.574;11.170;2024-02-21T00:21:03;98417.47;;;7.73
13410;BMP180;6775;49.574;11.170;2024-02-21T00:23:32;98412.34;;;7.73
13410;BMP180;6775;49.574;11.170;2024-02-21T00:26:00;98403.59;;;7.77
13410;BMP180;6775;49.574;11.170;2024-02-21T00:28:29;98403.59;;;7.77
13410;BMP180;6775;49.574;11.170;2024-02-21T00:30:58;98399.56;;;7.73
13410;BMP180;6775;49.574;11.170;2024-02-21T00:33:26;98391.16;;;7.71
13410;BMP180;6775;49.574;11.170;2024-02-21T00:35:54;98392.84;;;7.71
13410;BMP180;6775;49.574;11.170;2024-02-21T00:38:22;98394.59;;;7.70
13410;BMP180;6775;49.574;11.170;2024-02-21T00:40:50;98388.75;;;7.68
13410;BMP180;6775;49.574;11.170;2024-02-21T00:43:19;98387.00;;;7.69
13410;BMP180;6775;49.574;11.170;2024-02-21T00:45:51;98381.16;;;7.67
13410;BMP180;6775;49.574;11.170;2024-02-21T00:48:19;98382.06;;;7.66
13410;BMP180;6775;49.574;11.170;2024-02-21T00:50:48;98373.69;;;7.62
13410;BMP180;6775;49.574;11.170;2024-02-21T00:53:16;98382.31;;;7.61
13410;BMP180;6775;49.574;11.170;2024-02-21T00:55:44;98373.88;;;7.59
13410;BMP180;6775;49.574;11.170;2024-02-21T00:58:12;98368.91;;;7.56
13410;BMP180;6775;49.574;11.170;2024-02-21T01:00:40;98368.13;;;7.56
13410;BMP180;6775;49.574;11.170;2024-02-21T01:03:10;98357.88;;;7.56
13410;BMP180;6775;49.574;11.170;2024-02-21T01:05:38;98360.53;;;7.54
13410;BMP180;6775;49.574;11.170;2024-02-21T01:08:07;98358.13;;;7.52
13410;BMP180;6775;49.574;11.170;2024-02-21T01:10:35;98359.69;;;7.54
13410;BMP180;6775;49.574;11.170;2024-02-21T01:13:03;98348.63;;;7.53
13410;BMP180;6775;49.574;11.170;2024-02-21T01:15:32;98352.00;;;7.54
13410;BMP180;6775;49.574;11.170;2024-02-21T01:18:00;98353.56;;;7.56
13410;BMP180;6775;49.574;11.170;2024-02-21T01:20:30;98343.34;;;7.56
13410;BMP180;6775;49.574;11.170;2024-02-21T01:22:58;98348.28;;;7.59
13410;BMP180;6775;49.574;11.170;2024-02-21T01:25:27;98338.06;;;7.59
13410;BMP180;6775;49.574;11.170;2024-02-21T01:27:55;98334.94;;;7.54
13410;BMP180;6775;49.574;11.170;2024-02-21T01:30:24;98331.63;;;7.52
13410;BMP180;6775;49.574;11.170;2024-02-21T01:32:52;98333.53;;;7.49
13410;BMP180;6775;49.574;11.170;2024-02-21T01:35:20;98335.38;;;7.47
13410;BMP180;6775;49.574;11.170;2024-02-21T01:37:49;98331.78;;;7.50
13410;BMP180;6775;49.574;11.170;2024-02-21T01:40:18;98331.63;;;7.52
13410;BMP180;6775;49.574;11.170;2024-02-21T01:42:46;98331.63;;;7.52
13410;BMP180;6775;49.574;11.170;2024-02-21T01:45:15;98329.81;;;7.54
13410;BMP180;6775;49.574;11.170;2024-02-21T01:47:45;98322.06;;;7.56
13410;BMP180;6775;49.574;11.170;2024-02-21T01:50:16;98314.47;;;7.54
13410;BMP180;6775;49.574;11.170;2024-02-21T01:52:50;98311.00;;;7.55
13410;BMP180;6775;49.574;11.170;2024-02-21T01:55:18;98312.66;;;7.56
13410;BMP180;6775;49.574;11.170;2024-02-21T01:57:47;98309.00;;;7.60
13410;BMP180;6775;49.574;11.170;2024-02-21T02:00:17;98308.13;;;7.61
13410;BMP180;6775;49.574;11.170;2024-02-21T02:02:46;98300.44;;;7.61
13410;BMP180;6775;49.574;11.170;2024-02-21T02:05:15;98299.13;;;7.54
13410;BMP180;6775;49.574;11.170;2024-02-21T02:07:45;98301.09;;;7.50
13410;BMP180;6775;49.574;11.170;2024-02-21T02:10:15;98313.88;;;7.50
13410;BMP180;6775;49.574;11.170;2024-02-21T02:12:43;98301.09;;;7.50
13410;BMP180;6775;49.574;11.170;2024-02-21T02:15:11;98301.09;;;7.50
13410;BMP180;6775;49.574;11.170;2024-02-21T02:17:39;98300.28;;;7.49
13410;BMP180;6775;49.574;11.170;2024-02-21T02:20:09;98293.50;;;7.48
13410;BMP180;6775;49.574;11.170;2024-02-21T02:22:41;98293.59;;;7.47
13410;BMP180;6775;49.574;11.170;2024-02-21T02:25:12;98293.69;;;7.45
13410;BMP180;6775;49.574;11.170;2024-02-21T02:27:44;98293.69;;;7.45
13410;BMP180;6775;49.574;11.170;2024-02-21T02:30:13;98292.88;;;7.45
13410;BMP180;6775;49.574;11.170;2024-02-21T02:32:45;98288.66;;;7.44
13410;BMP180;6775;49.574;11.170;2024-02-21T02:35:14;98282.63;;;7.45
13410;BMP180;6775;49.574;11.170;2024-02-21T02:37:48;98280.25;;;7.42
13410;BMP180;6775;49.574;11.170;2024-02-21T02:40:19;98275.03;;;7.43
13410;BMP180;6775;49.574;11.170;2024-02-21T02:42:47;98270.00;;;7.42
13410;BMP180;6775;49.574;11.170;2024-02-21T02:45:16;98264.00;;;7.43
13410;BMP180;6775;49.574;11.170;2024-02-21T02:47:44;98259.03;;;7.40
13410;BMP180;6775;49.574;11.170;2024-02-21T02:50:14;98253.09;;;7.39
13410;BMP180;6775;49.574;11.170;2024-02-21T02:52:42;98253.09;;;7.39
13410;BMP180;6775;49.574;11.170;2024-02-21T02:55:10;98258.13;;;7.41
13410;BMP180;6775;49.574;11.170;2024-02-21T02:57:40;98256.72;;;7.35
13410;BMP180;6775;49.574;11.170;2024-02-21T03:00:10;98242.41;;;7.33
13410;BMP180;6775;49.574;11.170;2024-02-21T03:02:41;98249.97;;;7.34
13410;BMP180;6775;49.574;11.170;2024-02-21T03:05:14;98241.28;;;7.37
13410;BMP180;6775;49.574;11.170;2024-02-21T03:07:43;98246.59;;;7.34
13410;BMP180;6775;49.574;11.170;2024-02-21T03:10:13;98248.41;;;7.32
13410;BMP180;6775;49.574;11.170;2024-02-21T03:12:45;98250.97;;;7.32
13410;BMP180;6775;49.574;11.170;2024-02-21T03:15:14;98240.00;;;7.30
13410;BMP180;6775;49.574;11.170;2024-02-21T03:17:42;98247.72;;;7.28
13410;BMP180;6775;49.574;11.170;2024-02-21T03:20:11;98241.06;;;7.26
13410;BMP180;6775;49.574;11.170;2024-02-21T03:22:40;98240.25;;;7.25
13410;BMP180;6775;49.574;11.170;2024-02-21T03:25:09;98243.72;;;7.24
13410;BMP180;6775;49.574;11.170;2024-02-21T03:27:38;98234.13;;;7.28
13410;BMP180;6775;49.574;11.170;2024-02-21T03:30:09;98237.47;;;7.30
13410;BMP180;6775;49.574;11.170;2024-02-21T03:32:37;98224.66;;;7.30
13410;BMP180;6775;49.574;11.170;2024-02-21T03:35:07;98223.75;;;7.31
13410;BMP180;6775;49.574;11.170;2024-02-21T03:37:36;98222.75;;;7.33
13410;BMP180;6775;49.574;11.170;2024-02-21T03:40:08;98221.00;;;7.34
13410;BMP180;6775;49.574;11.170;2024-02-21T03:42:37;98217.63;;;7.33
13410;BMP180;6775;49.574;11.170;2024-02-21T03:45:08;98221.94;;;7.33
13410;BMP180;6775;49.574;11.170;2024-02-21T03:47:37;98216.06;;;7.31
13410;BMP180;6775;49.574;11.170;2024-02-21T03:50:06;98210.88;;;7.32
13410;BMP180;6775;49.574;11.170;2024-02-21T03:52:35;98219.38;;;7.33
13410;BMP180;6775;49.574;11.170;2024-02-21T03:55:03;98220.03;;;7.36
13410;BMP180;6775;49.574;11.170;2024-02-21T03:57:32;98213.00;;;7.40
13410;BMP180;6775;49.574;11.170;2024-02-21T04:00:00;98207.88;;;7.40
13410;BMP180;6775;49.574;11.170;2024-02-21T04:02:31;98214.66;;;7.41
13410;BMP180;6775;49.574;11.170;2024-02-21T04:04:59;98210.53;;;7.38
13410;BMP180;6775;49.574;11.170;2024-02-21T04:07:27;98206.25;;;7.39
13410;BMP180;6775;49.574;11.170;2024-02-21T04:09:55;98209.34;;;7.44
13410;BMP180;6775;49.574;11.170;2024-02-21T04:12:24;98197.50;;;7.43
13410;BMP180;6775;49.574;11.170;2024-02-21T04:14:52;98199.22;;;7.42
13410;BMP180;6775;49.574;11.170;2024-02-21T04:17:20;98188.00;;;7.45
13410;BMP180;6775;49.574;11.170;2024-02-21T04:19:50;98187.19;;;7.44
13410;BMP180;6775;49.574;11.170;2024-02-21T04:22:18;98194.84;;;7.44
13410;BMP180;6775;49.574;11.170;2024-02-21T04:24:46;98184.78;;;7.41
13410;BMP180;6775;49.574;11.170;2024-02-21T04:27:14;98196.84;;;7.39
13410;BMP180;6775;49.574;11.170;2024-02-21T04:29:42;98191.00;;;7.37
13410;BMP180;6775;49.574;11.170;2024-02-21T04:32:11;98194.53;;;7.35
13410;BMP180;6775;49.574;11.170;2024-02-21T04:34:41;98192.88;;;7.34
13410;BMP180;6775;49.574;11.170;2024-02-21T04:37:11;98193.81;;;7.33
13410;BMP180;6775;49.574;11.170;2024-02-21T04:39:39;98198.94;;;7.33
13410;BMP180;6775;49.574;11.170;2024-02-21T04:42:07;98193.72;;;7.34
13410;BMP180;6775;49.574;11.170;2024-02-21T04:44:36;98180.19;;;7.32
13410;BMP180;6775;49.574;11.170;2024-02-21T04:47:05;98177.53;;;7.34
13410;BMP180;6775;49.574;11.170;2024-02-21T04:49:33;98178.47;;;7.33
13410;BMP180;6775;49.574;11.170;2024-02-21T04:52:02;98182.75;;;7.32
13410;BMP180;6775;49.574;11.170;2024-02-21T04:54:31;98181.03;;;7.33
13410;BMP180;6775;49.574;11.170;2024-02-21T04:56:59;98178.47;;;7.33
13410;BMP180;6775;49.574;11.170;2024-02-21T04:59:27;98170.81;;;7.33
13410;BMP180;6775;49.574;11.170;2024-02-21T05:01:56;98174.16;;;7.33
13410;BMP180;6775;49.574;11.170;2024-02-21T05:04:25;98169.16;;;7.32
13410;BMP180;6775;49.574;11.170;2024-02-21T05:06:53;98160.56;;;7.33
13410;BMP180;6775;49.574;11.170;2024-02-21T05:09:22;98153.72;;;7.33
13410;BMP180;6775;49.574;11.170;2024-02-21T05:11:52;98148.59;;;7.33
13410;BMP180;6775;49.574;11.170;2024-02-21T05:14:20;98141.00;;;7.32
13410;BMP180;6775;49.574;11.170;2024-02-21T05:16:48;98136.97;;;7.28
13410;BMP180;6775;49.574;11.170;2024-02-21T05:19:16;98139.53;;;7.28
13410;BMP180;6775;49.574;11.170;2024-02-21T05:21:45;98134.50;;;7.26
13410;BMP180;6775;49.574;11.170;2024-02-21T05:24:13;98138.81;;;7.26
13410;BMP180;6775;49.574;11.170;2024-02-21T05:26:41;98133.88;;;7.23
13410;BMP180;6775;49.574;11.170;2024-02-21T05:29:11;98138.13;;;7.22
13410;BMP180;6775;49.574;11.170;2024-02-21T05:31:56;98147.06;;;7.15
13410;BMP180;6775;49.574;11.170;2024-02-21T05:34:25;98147.97;;;7.14
13410;BMP180;6775;49.574;11.170;2024-02-21T05:36:54;98148.63;;;7.18
13410;BMP180;6775;49.574;11.170;2024-02-21T05:39:24;98154.81;;;7.14
13410;BMP180;6775;49.574;11.170;2024-02-21T05:41:52;98142.13;;;7.12
13410;BMP180;6775;49.574;11.170;2024-02-21T05:44:22;98143.69;;;7.15
13410;BMP180;6775;49.574;11.170;2024-02-21T05:46:50;98148.63;;;7.18
13410;BMP180;6775;49.574;11.170;2024-02-21T05:49:18;98142.03;;;7.14
13410;BMP180;6775;49.574;11.170;2024-02-21T05:51:46;98148.25;;;7.10
13410;BMP180;6775;49.574;11.170;2024-02-21T05:54:15;98141.66;;;7.06
13410;BMP180;6775;49.574;11.170;2024-02-21T05:56:46;98133.22;;;7.04
13410;BMP180;6775;49.574;11.170;2024-02-21T05:59:14;98126.50;;;7.03
13410;BMP180;6775;49.574;11.170;2024-02-21T06:01:44;98124.09;;;7.00
13410;BMP180;6775;49.574;11.170;2024-02-21T06:04:12;98127.91;;;6.93
13410;BMP180;6775;49.574;11.170;2024-02-21T06:06:41;98119.66;;;6.88
13410;BMP180;6775;49.574;11.170;2024-02-21T06:09:09;98117.44;;;6.82
13410;BMP180;6775;49.574;11.170;2024-02-21T06:11:37;98118.69;;;6.75
13410;BMP180;6775;49.574;11.170;2024-02-21T06:14:05;98131.97;;;6.66
13410;BMP180;6775;49.574;11.170;2024-02-21T06:16:33;98128.94;;;6.60
13410;BMP180;6775;49.574;11.170;2024-02-21T06:19:03;98136.88;;;6.54
13410;BMP180;6775;49.574;11.170;2024-02-21T06:21:36;98134.50;;;6.51
13410;BMP180;6775;49.574;11.170;2024-02-21T06:24:05;98136.25;;;6.51
13410;BMP180;6775;49.574;11.170;2024-02-21T06:26:33;98129.47;;;6.50
13410;BMP180;6775;49.574;11.170;2024-02-21T06:29:01;98132.53;;;6.56
13410;BMP180;6775;49.574;11.170;2024-02-21T06:31:30;98135.56;;;6.62
13410;BMP180;6775;49.574;11.170;2024-02-21T06:33:59;98143.66;;;6.70
13410;BMP180;6775;49.574;11.170;2024-02-21T06:36:28;98138.94;;;6.78
13410;BMP180;6775;49.574;11.170;2024-02-21T06:38:56;98137.06;;;6.82
13410;BMP180;6775;49.574;11.170;2024-02-21T06:41:25;98153.03;;;6.85
13410;BMP180;6775;49.574;11.170;2024-02-21T06:43:53;98144.13;;;6.92
13410;BMP180;6775;49.574;11.170;2024-02-21T06:46:25;98147.19;;;6.99
13410;BMP180;6775;49.574;11.170;2024-02-21T06:48:53;98149.41;;;7.04
13410;BMP180;6775;49.574;11.170;2024-02-21T06:51:23;98147.56;;;7.06
13410;BMP180;6775;49.574;11.170;2024-02-21T06:53:54;98149.22;;;7.07
13410;BMP180;6775;49.574;11.170;2024-02-21T06:56:24;98144.59;;;7.14
13410;BMP180;6775;49.574;11.170;2024-02-21T06:58:55;98140.06;;;7.19
13410;BMP180;6775;49.574;11.170;2024-02-21T07:01:24;98142.53;;;7.20
13410;BMP180;6775;49.574;11.170;2024-02-21T07:03:52;98142.63;;;7.19
13410;BMP180;6775;49.574;11.170;2024-02-21T07:06:21;98139.16;;;7.20
13410;BMP180;6775;49.574;11.170;2024-02-21T07:08:49;98137.50;;;7.19
13410;BMP180;6775;49.574;11.170;2024-02-21T07:11:19;98130.56;;;7.21
13410;BMP180;6775;49.574;11.170;2024-02-21T07:13:48;98130.28;;;7.25
13410;BMP180;6775;49.574;11.170;2024-02-21T07:16:15;98133.88;;;7.37
13410;BMP180;6775;49.574;11.170;2024-02-21T07:18:43;98132.09;;;7.52
13410;BMP180;6775;49.574;11.170;2024-02-21T07:21:11;98128.00;;;7.64
13410;BMP180;6775;49.574;11.170;2024-02-21T07:23:41;98132.88;;;7.82
13410;BMP180;6775;49.574;11.170;2024-02-21T07:26:10;98127.03;;;8.08
13410;BMP180;6775;49.574;11.170;2024-02-21T07:28:39;98117.38;;;8.41
13410;BMP180;6775;49.574;11.170;2024-02-21T07:31:07;98124.03;;;9.60
13410;BMP180;6775;49.574;11.170;2024-02-21T07:33:35;98127.50;;;11.97
13410;BMP180;6775;49.574;11.170;2024-02-21T07:36:06;98110.75;;;14.22
13410;BMP180;6775;49.574;11.170;2024-02-21T07:38:35;98110.66;;;16.13
13410;BMP180;6775;49.574;11.170;2024-02-21T07:41:03;98105.53;;;17.80
13410;BMP180;6775;49.574;11.170;2024-02-21T07:43:32;98091.78;;;18.79
13410;BMP180;6775;49.574;11.170;2024-02-21T07:46:01;98097.28;;;19.80
13410;BMP180;6775;49.574;11.170;2024-02-21T07:48:30;98092.97;;;21.64
13410;BMP180;6775;49.574;11.170;2024-02-21T07:51:01;98093.03;;;23.63
13410;BMP180;6775;49.574;11.170;2024-02-21T07:53:29;98086.75;;;24.67
13410;BMP180;6775;49.574;11.170;2024-02-21T07:55:57;98079.13;;;25.63
13410;BMP180;6775;49.574;11.170;2024-02-21T07:58:26;98071.06;;;25.97
13410;BMP180;6775;49.574;11.170;2024-02-21T08:00:54;98070.19;;;25.32
13410;BMP180;6775;49.574;11.170;2024-02-21T08:03:24;98077.53;;;24.96
13410;BMP180;6775;49.574;11.170;2024-02-21T08:05:52;98079.72;;;25.46
13410;BMP180;6775;49.574;11.170;2024-02-21T08:08:21;98057.50;;;24.89
13410;BMP180;6775;49.574;11.170;2024-02-21T08:10:49;98058.97;;;23.07
13410;BMP180;6775;49.574;11.170;2024-02-21T08:13:17;98060.72;;;21.49
13410;BMP180;6775;49.574;11.170;2024-02-21T08:15:45;98050.84;;;20.54
13410;BMP180;6775;49.574;11.170;2024-02-21T08:18:13;98051.69;;;19.37
13410;BMP180;6775;49.574;11.170;2024-02-21T08:20:43;98045.81;;;17.70
13410;BMP180;6775;49.574;11.170;2024-02-21T08:23:11;98040.94;;;16.64
13410;BMP180;6775;49.574;11.170;2024-02-21T08:25:40;98028.78;;;16.47
13410;BMP180;6775;49.574;11.170;2024-02-21T08:28:08;98029.75;;;18.00
13410;BMP180;6775;49.574;11.170;2024-02-21T08:30:36;98016.13;;;19.91
13410;BMP180;6775;49.574;11.170;2024-02-21T08:33:04;98012.13;;;20.87
13410;BMP180;6775;49.574;11.170;2024-02-21T08:35:33;98025.03;;;21.56
13410;BMP180;6775;49.574;11.170;2024-02-21T08:38:03;98030.28;;;22.71
13410;BMP180;6775;49.574;11.170;2024-02-21T08:40:31;98026.38;;;22.31
13410;BMP180;6775;49.574;11.170;2024-02-21T08:43:02;98035.56;;;22.13
13410;BMP180;6775;49.574;11.170;2024-02-21T08:45:30;98026.97;;;21.17
13410;BMP180;6775;49.574;11.170;2024-02-21T08:47:58;98031.34;;;19.48
13410;BMP180;6775;49.574;11.170;2024-02-21T08:50:27;98034.81;;;18.27
13410;BMP180;6775;49.574;11.170;2024-02-21T08:52:56;98029.16;;;17.56
13410;BMP180;6775;49.574;11.170;2024-02-21T08:55:26;98019.47;;;18.57
13410;BMP180;6775;49.574;11.170;2024-02-21T08:57:54;98014.38;;;20.30
13410;BMP180;6775;49.574;11.170;2024-02-21T09:00:23;98012.34;;;21.81
13410;BMP180;6775;49.574;11.170;2024-02-21T09:02:54;98005.94;;;22.91
13410;BMP180;6775;49.574;11.170;2024-02-21T09:05:23;98002.94;;;23.56
13410;BMP180;6775;49.574;11.170;2024-02-21T09:07:52;98013.41;;;24.04
13410;BMP180;6775;49.574;11.170;2024-02-21T09:10:21;98001.59;;;24.21
13410;BMP180;6775;49.574;11.170;2024-02-21T09:12:50;98001.63;;;24.74
13410;BMP180;6775;49.574;11.170;2024-02-21T09:15:18;98000.97;;;25.19
13410;BMP180;6775;49.574;11.170;2024-02-21T09:17:46;97999.56;;;24.57
13410;BMP180;6775;49.574;11.170;2024-02-21T09:20:15;97996.56;;;24.26
13410;BMP180;6775;49.574;11.170;2024-02-21T09:22:45;97997.09;;;24.49
13410;BMP180;6775;49.574;11.170;2024-02-21T09:25:13;97993.16;;;23.44
13410;BMP180;6775;49.574;11.170;2024-02-21T09:27:44;97994.38;;;22.50
13410;BMP180;6775;49.574;11.170;2024-02-21T09:30:14;97985.47;;;21.87
13410;BMP180;6775;49.574;11.170;2024-02-21T09:32:42;97988.69;;;21.02
13410;BMP180;6775;49.574;11.170;2024-02-21T09:35:11;97984.91;;;20.14
13410;BMP180;6775;49.574;11.170;2024-02-21T09:37:39;97985.97;;;19.89
13410;BMP180;6775;49.574;11.170;2024-02-21T09:40:09;97986.69;;;19.43
13410;BMP180;6775;49.574;11.170;2024-02-21T09:42:39;97985.16;;;19.88
13410;BMP180;6775;49.574;11.170;2024-02-21T09:45:15;97991.88;;;19.43
13410;BMP180;6775;49.574;11.170;2024-02-21T09:48:06;97985.53;;;17.67
13410;BMP180;6775;49.574;11.170;2024-02-21T09:50:40;97992.59;;;16.45
13410;BMP180;6775;49.574;11.170;2024-02-21T09:53:12;97985.94;;;15.70
13410;BMP180;6775;49.574;11.170;2024-02-21T09:55:40;97993.31;;;15.20
13410;BMP180;6775;49.574;11.170;2024-02-21T09:58:10;97969.16;;;15.84
13410;BMP180;6775;49.574;11.170;2024-02-21T10:00:40;97961.13;;;19.31
13410;BMP180;6775;49.574;11.170;2024-02-21T10:03:09;97963.94;;;22.84
13410;BMP180;6775;49.574;11.170;2024-02-21T10:05:37;97957.44;;;25.68
13410;BMP180;6775;49.574;11.170;2024-02-21T10:08:06;97943.97;;;27.56
13410;BMP180;6775;49.574;11.170;2024-02-21T10:10:43;97935.13;;;27.69
13410;BMP180;6775;49.574;11.170;2024-02-21T10:13:23;97925.22;;;27.40
13410;BMP180;6775;49.574;11.170;2024-02-21T10:16:04;97924.72;;;27.92
13410;BMP180;6775;49.574;11.170;2024-02-21T10:18:32;97910.59;;;27.62
13410;BMP180;6775;49.574;11.170;2024-02-21T10:21:03;97912.00;;;27.82
13410;BMP180;6775;49.574;11.170;2024-02-21T10:23:45;97909.84;;;27.97
13410;BMP180;6775;49.574;11.170;2024-02-21T10:26:14;97914.47;;;28.01
13410;BMP180;6775;49.574;11.170;2024-02-21T10:28:42;97908.41;;;27.59
13410;BMP180;6775;49.574;11.170;2024-02-21T10:31:22;97914.50;;;26.43
13410;BMP180;6775;49.574;11.170;2024-02-21T10:33:56;97896.06;;;25.87
13410;BMP180;6775;49.574;11.170;2024-02-21T10:36:25;97891.06;;;25.40
13410;BMP180;6775;49.574;11.170;2024-02-21T10:38:54;97896.50;;;25.00
13410;BMP180;6775;49.574;11.170;2024-02-21T10:41:24;97899.34;;;25.31
13410;BMP180;6775;49.574;11.170;2024-02-21T10:43:55;97887.53;;;25.91
13410;BMP180;6775;49.574;11.170;2024-02-21T10:46:24;97883.09;;;26.72
13410;BMP180;6775;49.574;11.170;2024-02-21T10:49:05;97873.50;;;26.78
13410;BMP180;6775;49.574;11.170;2024-02-21T10:51:42;97869.56;;;26.32
13410;BMP180;6775;49.574;11.170;2024-02-21T10:54:30;97864.97;;;26.08
13410;BMP180;6775;49.574;11.170;2024-02-21T10:57:03;97856.25;;;25.38
13410;BMP180;6775;49.574;11.170;2024-02-21T10:59:34;97860.47;;;24.62
13410;BMP180;6775;49.574;11.170;2024-02-21T11:02:04;97857.00;;;23.83
13410;BMP180;6775;49.574;11.170;2024-02-21T11:04:34;97847.63;;;22.65
13410;BMP180;6775;49.574;11.170;2024-02-21T11:07:06;97851.81;;;21.17
13410;BMP180;6775;49.574;11.170;2024-02-21T11:09:37;97842.53;;;20.11
13410;BMP180;6775;49.574;11.170;2024-02-21T11:12:06;97842.97;;;19.46
13410;BMP180;6775;49.574;11.170;2024-02-21T11:14:38;97849.41;;;19.12
13410;BMP180;6775;49.574;11.170;2024-02-21T11:17:16;97840.16;;;19.10
13410;BMP180;6775;49.574;11.170;2024-02-21T11:19:45;97822.84;;;19.24
13410;BMP180;6775;49.574;11.170;2024-02-21T11:22:15;97822.22;;;19.99
13410;BMP180;6775;49.574;11.170;2024-02-21T11:24:44;97810.03;;;20.80
13410;BMP180;6775;49.574;11.170;2024-02-21T11:27:15;97812.97;;;21.28
13410;BMP180;6775;49.574;11.170;2024-02-21T11:29:44;97802.25;;;21.67
13410;BMP180;6775;49.574;11.170;2024-02-21T11:32:16;97797.63;;;22.60
13410;BMP180;6775;49.574;11.170;2024-02-21T11:34:55;97794.31;;;24.33
13410;BMP180;6775;49.574;11.170;2024-02-21T11:37:25;97787.91;;;25.82
13410;BMP180;6775;49.574;11.170;2024-02-21T11:39:55;97773.88;;;26.25
13410;BMP180;6775;49.574;11.170;2024-02-21T11:42:25;97773.13;;;24.98
13410;BMP180;6775;49.574;11.170;2024-02-21T11:44:54;97771.41;;;23.48
13410;BMP180;6775;49.574;11.170;2024-02-21T11:47:25;97758.94;;;24.29
13410;BMP180;6775;49.574;11.170;2024-02-21T11:49:53;97752.84;;;25.31
13410;BMP180;6775;49.574;11.170;2024-02-21T11:52:23;97753.53;;;25.77
13410;BMP180;6775;49.574;11.170;2024-02-21T11:54:54;97763.44;;;24.41
13410;BMP180;6775;49.574;11.170;2024-02-21T11:57:24;97749.63;;;24.13
13410;BMP180;6775;49.574;11.170;2024-02-21T11:59:52;97743.13;;;23.90
13410;BMP180;6775;49.574;11.170;2024-02-21T12:02:27;97734.47;;;23.43
13410;BMP180;6775;49.574;11.170;2024-02-21T12:04:56;97726.22;;;23.12
13410;BMP180;6775;49.574;11.170;2024-02-21T12:07:24;97719.50;;;22.42
13410;BMP180;6775;49.574;11.170;2024-02-21T12:09:59;97725.50;;;21.60
13410;BMP180;6775;49.574;11.170;2024-02-21T12:12:27;97708.22;;;21.79
13410;BMP180;6775;49.574;11.170;2024-02-21T12:14:56;97691.81;;;22.33
13410;BMP180;6775;49.574;11.170;2024-02-21T12:17:26;97702.28;;;22.88
13410;BMP180;6775;49.574;11.170;2024-02-21T12:19:55;97695.03;;;22.90
13410;BMP180;6775;49.574;11.170;2024-02-21T12:22:25;97688.38;;;22.87
13410;BMP180;6775;49.574;11.170;2024-02-21T12:24:54;97690.59;;;22.90
13410;BMP180;6775;49.574;11.170;2024-02-21T12:27:22;97688.94;;;22.83
13410;BMP180;6775;49.574;11.170;2024-02-21T12:29:50;97682.59;;;22.37
13410;BMP180;6775;49.574;11.170;2024-02-21T12:32:18;97678.06;;;22.25
13410;BMP180;6775;49.574;11.170;2024-02-21T12:34:48;97671.50;;;22.35
13410;BMP180;6775;49.574;11.170;2024-02-21T12:37:22;97673.19;;;21.80
13410;BMP180;6775;49.574;11.170;2024-02-21T12:39:52;97665.81;;;21.84
13410;BMP180;6775;49.574;11.170;2024-02-21T12:42:20;97655.06;;;22.00
13410;BMP180;6775;49.574;11.170;2024-02-21T12:44:50;97652.41;;;22.21
13410;BMP180;6775;49.574;11.170;2024-02-21T12:47:19;97645.75;;;22.39
13410;BMP180;6775;49.574;11.170;2024-02-21T12:49:51;97635.09;;;22.20
13410;BMP180;6775;49.574;11.170;2024-02-21T12:52:20;97627.75;;;21.46
13410;BMP180;6775;49.574;11.170;2024-02-21T12:54:48;97627.78;;;21.11
13410;BMP180;6775;49.574;11.170;2024-02-21T12:57:18;97618.44;;;21.02
13410;BMP180;6775;49.574;11.170;2024-02-21T12:59:49;97614.06;;;21.09
13410;BMP180;6775;49.574;11.170;2024-02-21T13:02:17;97616.72;;;20.66
13410;BMP180;6775;49.574;11.170;2024-02-21T13:04:46;97603.03;;;19.62
13410;BMP180;6775;49.574;11.170;2024-02-21T13:07:16;97606.16;;;19.58
13410;BMP180;6775;49.574;11.170;2024-02-21T13:09:45;97606.34;;;19.34
13410;BMP180;6775;49.574;11.170;2024-02-21T13:12:13;97605.75;;;19.24
13410;BMP180;6775;49.574;11.170;2024-02-21T13:14:42;97599.38;;;19.26
13410;BMP180;6775;49.574;11.170;2024-02-21T13:17:12;97597.97;;;18.86
13410;BMP180;6775;49.574;11.170;2024-02-21T13:19:42;97585.31;;;18.37
13410;BMP180;6775;49.574;11.170;2024-02-21T13:22:09;97576.09;;;18.03
13410;BMP180;6775;49.574;11.170;2024-02-21T13:24:39;97572.91;;;17.61
13410;BMP180;6775;49.574;11.170;2024-02-21T13:27:07;97568.72;;;16.87
13410;BMP180;6775;49.574;11.170;2024-02-21T13:29:35;97565.50;;;16.44
13410;BMP180;6775;49.574;11.170;2024-02-21T13:32:04;97549.84;;;15.95
13410;BMP180;6775;49.574;11.170;2024-02-21T13:34:33;97556.69;;;15.79
13410;BMP180;6775;49.574;11.170;2024-02-21T13:37:01;97553.47;;;15.60
13410;BMP180;6775;49.574;11.170;2024-02-21T13:39:31;97550.31;;;15.31
13410;BMP180;6775;49.574;11.170;2024-02-21T13:42:03;97547.66;;;15.06
13410;BMP180;6775;49.574;11.170;2024-02-21T13:44:32;97542.47;;;14.88
13410;BMP180;6775;49.574;11.170;2024-02-21T13:47:01;97536.09;;;14.65
13410;BMP180;6775;49.574;11.170;2024-02-21T13:49:30;97541.91;;;14.67
13410;BMP180;6775;49.574;11.170;2024-02-21T13:51:58;97536.09;;;14.65
13410;BMP180;6775;49.574;11.170;2024-02-21T13:54:27;97528.81;;;14.52
13410;BMP180;6775;49.574;11.170;2024-02-21T13:56:55;97526.28;;;14.42
13410;BMP180;6775;49.574;11.170;2024-02-21T13:59:24;97526.34;;;14.33
13410;BMP180;6775;49.574;11.170;2024-02-21T14:01:53;97517.00;;;14.22
13410;BMP180;6775;49.574;11.170;2024-02-21T14:04:22;97520.28;;;14.15
13410;BMP180;6775;49.574;11.170;2024-02-21T14:06:50;97515.69;;;14.09
13410;BMP180;6775;49.574;11.170;2024-02-21T14:09:20;97516.53;;;14.00
13410;BMP180;6775;49.574;11.170;2024-02-21T14:11:48;97511.66;;;13.97
13410;BMP180;6775;49.574;11.170;2024-02-21T14:14:16;97505.13;;;13.93
13410;BMP180;6775;49.574;11.170;2024-02-21T14:16:46;97506.19;;;14.00
13410;BMP180;6775;49.574;11.170;2024-02-21T14:19:15;97502.47;;;14.12
13410;BMP180;6775;49.574;11.170;2024-02-21T14:21:44;97504.34;;;14.19
13410;BMP180;6775;49.574;11.170;2024-02-21T14:24:12;97492.44;;;14.09
13410;BMP180;6775;49.574;11.170;2024-02-21T14:26:41;97493.28;;;14.00
13410;BMP180;6775;49.574;11.170;2024-02-21T14:29:09;97491.41;;;13.93